createdAt,value
2024-01-07T00:00:01.814Z,99474.16
2024-01-07T00:05:07.751Z,99473.28
2024-01-07T00:10:11.484Z,99477.50
2024-01-07T00:15:14.400Z,99474.06
2024-01-07T00:20:17.137Z,99478.44
2024-01-07T00:25:20.087Z,99475.41
2024-01-07T00:30:23.419Z,99478.69
2024-01-07T00:35:26.231Z,99479.78
2024-01-07T00:40:28.916Z,99479.88
2024-01-07T00:45:31.881Z,99481.78
2024-01-07T00:50:34.656Z,99487.66
2024-01-07T00:55:37.690Z,99487.41
2024-01-07T01:00:40.443Z,99499.06
2024-01-07T01:05:43.175Z,99497.13
2024-01-07T01:10:45.981Z,99498.28
2024-01-07T01:15:48.793Z,99502.47
2024-01-07T01:20:51.589Z,99507.72
2024-01-07T01:25:54.860Z,99505.94
2024-01-07T01:30:57.683Z,99505.41
2024-01-07T01:36:00.399Z,99506.47
2024-01-07T01:41:03.198Z,99505.94
2024-01-07T01:46:06.046Z,99511.59
2024-01-07T01:51:10.365Z,99516.00
2024-01-07T01:56:13.739Z,99516.53
2024-01-07T02:01:16.769Z,99514.63
2024-01-07T02:06:20.271Z,99518.97
2024-01-07T02:11:24.357Z,99519.50
2024-01-07T02:16:27.162Z,99506.97
2024-01-07T02:21:30.325Z,99512.22
2024-01-07T02:26:33.162Z,99516.63
2024-01-07T02:31:36.030Z,99511.13
2024-01-07T02:36:38.888Z,99507.28
2024-01-07T02:41:41.634Z,99511.84
2024-01-07T02:46:44.931Z,99510.34
2024-01-07T02:51:50.837Z,99515.59
2024-01-07T02:56:53.546Z,99525.56
2024-01-07T03:01:56.341Z,99530.50
2024-01-07T03:06:59.089Z,99528.66
2024-01-07T03:12:02.125Z,99524.78
2024-01-07T03:17:06.490Z,99529.44
2024-01-07T03:22:09.547Z,99530.41
2024-01-07T03:27:12.292Z,99529.03
2024-01-07T03:32:15.165Z,99545.94
2024-01-07T03:37:18.581Z,99540.00
2024-01-07T03:42:21.578Z,99544.19
2024-01-07T03:47:24.551Z,99550.84
2024-01-07T03:52:27.300Z,99553.41
2024-01-07T03:57:30.104Z,99555.09
2024-01-07T04:02:32.864Z,99558.72
2024-01-07T04:07:36.518Z,99570.34
2024-01-07T04:12:39.369Z,99568.03
2024-01-07T04:17:42.329Z,99568.81
2024-01-07T04:22:45.100Z,99580.63
2024-01-07T04:27:48.051Z,99586.19
2024-01-07T04:32:51.245Z,99593.78
2024-01-07T04:37:53.915Z,99596.50
2024-01-07T04:42:57.173Z,99591.59
2024-01-07T04:48:00.061Z,99607.50
2024-01-07T04:53:02.923Z,99601.13
2024-01-07T04:58:06.214Z,99608.56
2024-01-07T05:03:08.969Z,99616.63
2024-01-07T05:08:11.844Z,99618.16
2024-01-07T05:13:14.610Z,99619.19
2024-01-07T05:18:19.534Z,99630.75
2024-01-07T05:23:22.639Z,99630.19
2024-01-07T05:28:25.702Z,99637.31
2024-01-07T05:33:28.750Z,99643.63
2024-01-07T05:38:33.022Z,99654.72
2024-01-07T05:43:38.292Z,99656.97
2024-01-07T05:48:49.223Z,99661.06
2024-01-07T05:53:52.037Z,99649.72
2024-01-07T05:58:54.635Z,99665.09
2024-01-07T06:03:57.418Z,99672.34
2024-01-07T06:09:00.398Z,99661.88
2024-01-07T06:14:05.865Z,99673.78
2024-01-07T06:19:09.341Z,99684.59
2024-01-07T06:24:12.734Z,99674.22
2024-01-07T06:29:15.437Z,99673.13
2024-01-07T06:34:18.319Z,99684.31
2024-01-07T06:39:21.093Z,99690.22
2024-01-07T06:44:23.783Z,99699.84
2024-01-07T06:49:26.537Z,99705.19
2024-01-07T06:54:29.343Z,99710.09
2024-01-07T06:59:32.670Z,99720.28
2024-01-07T07:04:35.465Z,99743.03
2024-01-07T07:09:38.340Z,99740.97
2024-01-07T07:14:41.321Z,99746.41
2024-01-07T07:19:46.005Z,99750.31
2024-01-07T07:29:52.086Z,99755.75
2024-01-07T07:34:54.895Z,99764.41
2024-01-07T07:39:57.855Z,99767.38
2024-01-07T07:45:00.592Z,99768.88
2024-01-07T07:50:03.729Z,99774.16
2024-01-07T07:55:08.846Z,99780.78
2024-01-07T08:00:15.068Z,99781.88
2024-01-07T08:05:21.325Z,99793.91
2024-01-07T08:10:24.841Z,99789.25
2024-01-07T08:15:27.685Z,99787.94
2024-01-07T08:20:30.567Z,99798.06
2024-01-07T08:25:33.658Z,99788.97
2024-01-07T08:30:36.815Z,99795.78
2024-01-07T08:35:40.142Z,99811.75
2024-01-07T08:40:42.954Z,99823.69
2024-01-07T08:45:45.655Z,99828.78
2024-01-07T08:50:48.334Z,99835.66
2024-01-07T08:55:51.271Z,99836.78
2024-01-07T09:00:54.032Z,99840.13
2024-01-07T09:05:56.994Z,99842.00
2024-01-07T09:11:01.713Z,99849.53
2024-01-07T09:16:04.708Z,99858.63
2024-01-07T09:21:07.728Z,99862.19
2024-01-07T09:26:10.563Z,99858.25
2024-01-07T09:31:13.463Z,99861.69
2024-01-07T09:36:26.297Z,99864.84
2024-01-07T09:41:33.010Z,99861.75
2024-01-07T09:46:38.621Z,99867.59
2024-01-07T09:51:45.915Z,99862.41
2024-01-07T09:57:02.741Z,99862.38
2024-01-07T10:02:06.228Z,99853.84
2024-01-07T10:07:15.116Z,99844.31
2024-01-07T10:12:18.724Z,99841.06
2024-01-07T10:17:22.570Z,99842.13
2024-01-07T10:22:25.461Z,99857.09
2024-01-07T10:27:28.519Z,99855.16
2024-01-07T10:32:31.377Z,99847.50
2024-01-07T10:37:35.123Z,99857.44
2024-01-07T10:42:39.983Z,99856.44
2024-01-07T10:47:45.580Z,99854.91
2024-01-07T10:52:55.133Z,99860.09
2024-01-07T10:57:59.176Z,99857.91
2024-01-07T11:03:20.609Z,99858.94
2024-01-07T11:08:48.480Z,99850.41
2024-01-07T11:13:51.834Z,99849.63
2024-01-07T11:18:56.083Z,99844.81
2024-01-07T11:23:59.359Z,99849.75
2024-01-07T11:29:02.898Z,99845.44
2024-01-07T11:34:06.116Z,99853.19
2024-01-07T11:39:11.098Z,99865.50
2024-01-07T11:44:19.547Z,99849.97
2024-01-07T11:49:27.032Z,99845.41
2024-01-07T11:54:32.614Z,99843.44
2024-01-07T11:59:36.106Z,99845.34
2024-01-07T12:04:38.861Z,99846.22
2024-01-07T12:09:41.770Z,99844.72
2024-01-07T12:14:45.053Z,99837.72
2024-01-07T12:19:47.887Z,99848.66
2024-01-07T12:25:08.692Z,99855.00
2024-01-07T12:30:16.762Z,99853.66
2024-01-07T12:35:19.823Z,99859.09
2024-01-07T12:40:22.814Z,99863.53
2024-01-07T12:45:25.691Z,99871.69
2024-01-07T12:50:29.454Z,99874.81
2024-01-07T12:55:32.256Z,99879.28
2024-01-07T13:00:36.820Z,99878.97
2024-01-07T13:05:41.166Z,99897.22
2024-01-07T13:10:43.937Z,99888.16
2024-01-07T13:15:47.286Z,99892.78
2024-01-07T13:20:50.352Z,99899.50
2024-01-07T13:25:53.273Z,99905.31
2024-01-07T13:30:56.108Z,99911.53
2024-01-07T13:35:58.987Z,99913.41
2024-01-07T13:41:01.862Z,99920.28
2024-01-07T13:46:04.850Z,99922.59
2024-01-07T13:51:11.336Z,99930.59
2024-01-07T13:56:15.235Z,99925.31
2024-01-07T14:01:18.057Z,99932.41
2024-01-07T14:06:21.131Z,99942.97
2024-01-07T14:11:23.980Z,99945.59
2024-01-07T14:16:26.884Z,99942.88
2024-01-07T14:21:30.883Z,99954.16
2024-01-07T14:26:33.647Z,99952.94
2024-01-07T14:31:36.603Z,99956.09
2024-01-07T14:36:45.184Z,99959.66
2024-01-07T14:41:48.404Z,99958.88
2024-01-07T14:46:51.681Z,99964.63
2024-01-07T14:51:55.326Z,99964.63
2024-01-07T14:56:58.038Z,99975.91
2024-01-07T15:02:01.475Z,99977.38
2024-01-07T15:07:04.366Z,99982.50
2024-01-07T15:12:08.719Z,99981.59
2024-01-07T15:17:12.210Z,99993.91
2024-01-07T15:22:15.098Z,99996.63
2024-01-07T15:27:18.210Z,100002.78
2024-01-07T15:32:20.951Z,100013.03
2024-01-07T15:37:24.355Z,100003.69
2024-01-07T15:42:28.239Z,100013.59
2024-01-07T15:47:36.243Z,100024.00
2024-01-07T15:52:41.870Z,100023.13
2024-01-07T15:57:47.512Z,100033.56
2024-01-07T16:02:50.776Z,100026.47
2024-01-07T16:07:54.145Z,100045.47
2024-01-07T16:12:57.858Z,100042.19
2024-01-07T16:18:01.335Z,100038.22
2024-01-07T16:23:04.576Z,100052.81
2024-01-07T16:28:08.578Z,100060.25
2024-01-07T16:33:12.406Z,100067.75
2024-01-07T16:38:17.792Z,100073.00
2024-01-07T16:43:20.684Z,100084.25
2024-01-07T16:50:14.573Z,100078.84
2024-01-07T16:53:46.344Z,100086.47
2024-01-07T16:58:49.254Z,100097.47
2024-01-07T17:03:57.644Z,100100.69
2024-01-07T17:09:01.589Z,100106.09
2024-01-07T17:14:04.917Z,100109.03
2024-01-07T17:19:07.751Z,100109.16
2024-01-07T17:24:10.812Z,100112.56
2024-01-07T17:29:13.760Z,100112.41
2024-01-07T17:34:17.173Z,100125.06
2024-01-07T17:39:20.110Z,100130.53
2024-01-07T17:44:23.063Z,100129.34
2024-01-07T17:49:25.938Z,100132.91
2024-01-07T17:54:29.353Z,100155.38
2024-01-07T17:59:35.801Z,100156.16
2024-01-07T18:04:39.421Z,100169.25
2024-01-07T18:09:42.528Z,100172.00
2024-01-07T18:14:50.596Z,100177.50
2024-01-07T18:19:53.556Z,100190.16
2024-01-07T18:24:56.263Z,100193.22
2024-01-07T18:30:00.640Z,100203.91
2024-01-07T18:35:03.686Z,100209.13
2024-01-07T18:40:10.902Z,100207.44
2024-01-07T18:45:14.365Z,100220.22
2024-01-07T18:50:20.689Z,100212.50
2024-01-07T18:55:24.617Z,100225.75
2024-01-07T19:00:29.062Z,100227.28
2024-01-07T19:05:32.067Z,100236.84
2024-01-07T19:10:35.711Z,100234.22
2024-01-07T19:15:39.106Z,100234.84
2024-01-07T19:20:44.373Z,100232.53
2024-01-07T19:25:47.943Z,100236.72
2024-01-07T19:30:53.434Z,100230.22
2024-01-07T19:35:57.735Z,100226.84
2024-01-07T19:41:00.700Z,100228.06
2024-01-07T19:46:04.571Z,100230.53
2024-01-07T19:51:08.349Z,100227.63
2024-01-07T19:56:11.255Z,100223.91
2024-01-07T20:01:14.927Z,100238.25
2024-01-07T20:06:17.958Z,100244.25
2024-01-07T20:11:24.161Z,100241.94
2024-01-07T20:16:28.226Z,100243.19
2024-01-07T20:21:31.140Z,100247.03
2024-01-07T20:26:34.466Z,100252.53
2024-01-07T20:31:37.472Z,100263.03
2024-01-07T20:36:41.623Z,100271.19
2024-01-07T20:41:45.879Z,100265.81
2024-01-07T20:46:49.590Z,100279.34
2024-01-07T20:51:52.741Z,100283.97
2024-01-07T20:56:56.294Z,100289.22
2024-01-07T21:01:59.931Z,100293.38
2024-01-07T21:07:03.073Z,100308.16
2024-01-07T21:12:06.474Z,100301.97
2024-01-07T21:17:10.450Z,100303.06
2024-01-07T21:22:15.857Z,100305.97
2024-01-07T21:27:18.603Z,100309.22
2024-01-07T21:32:21.547Z,100312.94
2024-01-07T21:37:24.946Z,100317.66
2024-01-07T21:42:28.620Z,100316.28
2024-01-07T21:47:32.033Z,100329.38
2024-01-07T21:52:35.332Z,100331.06
2024-01-07T21:57:38.382Z,100326.47
2024-01-07T22:02:41.302Z,100332.13
2024-01-07T22:07:44.348Z,100334.75
2024-01-07T22:12:48.621Z,100333.03
2024-01-07T22:17:51.695Z,100337.63
2024-01-07T22:22:54.493Z,100339.91
2024-01-07T22:27:57.234Z,100355.28
2024-01-07T22:33:02.207Z,100361.94
2024-01-07T22:38:05.859Z,100368.66
2024-01-07T22:43:08.807Z,100375.63
2024-01-07T22:48:11.536Z,100383.31
2024-01-07T22:53:15.042Z,100375.84
2024-01-07T22:58:17.784Z,100384.47
2024-01-07T23:03:20.590Z,100388.72
2024-01-07T23:08:23.790Z,100380.69
2024-01-07T23:13:26.527Z,100387.28
2024-01-07T23:18:29.259Z,100389.16
2024-01-07T23:23:32.079Z,100385.16
2024-01-07T23:28:36.518Z,100398.56
2024-01-07T23:33:39.440Z,100399.53
2024-01-07T23:38:43.642Z,100402.09
2024-01-07T23:43:46.538Z,100409.44
2024-01-07T23:48:49.653Z,100408.38
2024-01-07T23:53:52.445Z,100412.91
2024-01-07T23:58:55.907Z,100408.22
